Home > Products > Valid Products > MTR

000
SAUS41 KPHI 241655
MTR12N
METAR K12N 241654Z AUTO 24/06 A3030 RMK AO1 SLP258 T02440056





000
SAUS41 KPHI 241655
MTRACY
METAR KACY 241654Z 19013KT 10SM CLR 24/10 A3035 RMK AO2 SLP275
T02390100





000
SAUS41 KPHI 241555
MTR12N
METAR K12N 241554Z AUTO 22007KT 23/06 A3033 RMK AO1 SLP268 T02280061





000
SAUS41 KPHI 241555
MTRACY
METAR KACY 241554Z 21012KT 10SM CLR 23/09 A3037 RMK AO2 SLP283
T02330094





000
SAUS41 KPHI 241455
MTR12N
METAR K12N 241454Z AUTO VRB05KT 22/07 A3034 RMK AO1 SLP273 T02170067
58010





000
SAUS41 KPHI 241455
MTRACY
METAR KACY 241454Z 22010KT 10SM CLR 22/09 A3038 RMK AO2 SLP287
T02220089 58009





000
SAUS41 KPHI 241355
MTR12N
METAR K12N 241354Z AUTO 21007KT 18/07 A3036 RMK AO1 SLP280 T01830067





000
SAUS41 KPHI 241355
MTRACY
METAR KACY 241354Z 23008KT 10SM CLR 21/10 A3041 RMK AO2 SLP295
T02060100





000
SAUS41 KPHI 241255
MTRACY
METAR KACY 241254Z 22010KT 10SM CLR 18/10 A3042 RMK AO2 SLP300
T01780100





000
SAUS41 KPHI 241255
MTR12N
METAR K12N 241254Z AUTO 21005KT 16/06 A3037 RMK AO1 SLP285 T01560061





000
SAUS41 KPHI 241155
MTRACY
METAR KACY 241154Z 22007KT 10SM CLR 15/11 A3041 RMK AO2 SLP297
T01500106 10150 20094 51007





000
SAUS41 KPHI 241155
MTR12N
METAR K12N 241154Z AUTO 00000KT 12/07 A3037 RMK AO1 SLP284 T01220067
10122 20044 53006





000
SAUS41 KPHI 241155
MTR12N
METAR K12N 241154Z AUTO 00000KT 12/07 A3037 RMK AO1 SLP284 T01220067
10122 20044 53006





000
SAUS41 KPHI 241155
MTRACY
METAR KACY 241154Z 22007KT 10SM CLR 15/11 A3041 RMK AO2 SLP297
T01500106 10150 20094 51007





000
SAUS41 KPHI 241056
MTR12N
METAR K12N 241054Z AUTO 19003KT 07/06 A3037 RMK AO1 SLP282 T00720056





000
SAUS41 KPHI 241056
MTR12N
METAR K12N 241054Z AUTO 19003KT 07/06 A3037 RMK AO1 SLP282 T00720056





000
SAUS41 KPHI 241055
MTRACY
METAR KACY 241054Z 20004KT 10SM CLR 12/09 A3040 RMK AO2 SLP294
T01170094





000
SAUS41 KPHI 241055
MTRACY
METAR KACY 241054Z 20004KT 10SM CLR 12/09 A3040 RMK AO2 SLP294
T01170094





000
SAUS41 KPHI 240955
MTR12N
METAR K12N 240954Z AUTO 00000KT 05/04 A3036 RMK AO1 SLP280 T00500044





000
SAUS41 KPHI 240955
MTRACY
METAR KACY 240954Z 00000KT 10SM CLR 09/08 A3040 RMK AO2 SLP293
T00940083





000
SAUS41 KPHI 240855
MTR12N
METAR K12N 240854Z AUTO 00000KT 05/04 A3035 RMK AO1 SLP279 T00500039
58000





000
SAUS41 KPHI 240855
MTRACY
METAR KACY 240854Z 00000KT 10SM CLR 10/08 A3039 RMK AO2 SLP290
T01000083 58001





000
SAUS41 KPHI 240755
MTR12N
METAR K12N 240754Z AUTO 00000KT 05/04 A3035 RMK AO1 SLP279 T00500039





000
SAUS41 KPHI 240755
MTRACY
METAR KACY 240754Z 21003KT 10SM CLR 10/09 A3039 RMK AO2 SLP290
T01000089





000
SAUS41 KPHI 240655
MTRACY
METAR KACY 240654Z 21004KT 10SM CLR 11/08 A3039 RMK AO2 SLP292
T01060083





000
SAUS41 KPHI 240655
MTR12N
METAR K12N 240654Z AUTO 20003KT 06/04 A3036 RMK AO1 SLP281 T00610039





000
SAUS41 KPHI 240655
MTR12N
METAR K12N 240654Z AUTO 20003KT 06/04 A3036 RMK AO1 SLP281 T00610039





000
SAUS41 KPHI 240655
MTRACY
METAR KACY 240654Z 21004KT 10SM CLR 11/08 A3039 RMK AO2 SLP292
T01060083





000
SAUS41 KPHI 240555
MTR12N
METAR K12N 240554Z AUTO 00000KT 06/04 A3035 RMK AO1 SLP280 T00610039
10150 20061 50000





000
SAUS41 KPHI 240555
MTR12N
METAR K12N 240554Z AUTO 00000KT 06/04 A3035 RMK AO1 SLP280 T00610039
10150 20061 50000





000
SAUS41 KPHI 240555
MTRACY
METAR KACY 240554Z 21004KT 10SM CLR 11/08 A3039 RMK AO2 SLP291
T01060083 10178 20106 58002





000
SAUS41 KPHI 240555
MTRACY
METAR KACY 240554Z 21004KT 10SM CLR 11/08 A3039 RMK AO2 SLP291
T01060083 10178 20106 58002





000
SAUS41 KPHI 240455
MTRACY
METAR KACY 240454Z 21005KT 10SM CLR 11/08 A3039 RMK AO2 SLP292
T01110083 402060061





000
SAUS41 KPHI 240455
MTR12N
METAR K12N 240454Z AUTO 20004KT 07/04 A3035 RMK AO1 SLP280 T00720039
402060039





000
SAUS41 KPHI 240355
MTR12N
METAR K12N 240354Z AUTO 00000KT 07/05 A3036 RMK AO1 SLP283 T00720050





000
SAUS41 KPHI 240355
MTRACY
METAR KACY 240354Z 21006KT 10SM CLR 12/08 A3040 RMK AO2 SLP292
T01170083





000
SAUS41 KPHI 240255
MTRACY
METAR KACY 240254Z 20007KT 10SM CLR 12/08 A3040 RMK AO2 SLP293
T01220078 53008





000
SAUS41 KPHI 240255
MTR12N
METAR K12N 240254Z AUTO 00000KT 08/05 A3035 RMK AO1 SLP281 T00830050
53008





000
SAUS41 KPHI 240255
MTRACY
METAR KACY 240254Z 20007KT 10SM CLR 12/08 A3040 RMK AO2 SLP293
T01220078 53008





000
SAUS41 KPHI 240255
MTR12N
METAR K12N 240254Z AUTO 00000KT 08/05 A3035 RMK AO1 SLP281 T00830050
53008





000
SAUS41 KPHI 240155
MTRACY
METAR KACY 240154Z 19008KT 10SM CLR 13/07 A3039 RMK AO2 SLP291
T01330072





000
SAUS41 KPHI 240155
MTR12N
METAR K12N 240154Z AUTO 00000KT 09/06 A3035 RMK AO1 SLP279 T00940056





000
SAUS41 KPHI 240055
MTR12N
METAR K12N 240054Z AUTO 00000KT 12/04 A3033 RMK AO1 SLP273 T01170044





000
SAUS41 KPHI 240055
MTRACY
METAR KACY 240054Z 16007KT 10SM CLR 14/08 A3038 RMK AO2 SLP285
T01390078





000
SAUS41 KPHI 232355
MTRACY
METAR KACY 232354Z 26005KT 10SM CLR 17/04 A3037 RMK AO2 SLP284
T01720044 10206 20156 55001





000
SAUS41 KPHI 232355
MTR12N
METAR K12N 232354Z AUTO 00000KT 16/02 A3033 RMK AO1 SLP271 T01560017
10206 20156 55004





000
SAUS41 KPHI 232255
MTR12N
METAR K12N 232254Z AUTO 00000KT 19/M02 A3033 RMK AO1 SLP269
T01941022





000
SAUS41 KPHI 232255
MTRACY
METAR KACY 232254Z 29004KT 10SM CLR 20/M01 A3037 RMK AO2 SLP283
T02001011





000
SAUS41 KPHI 232255
MTR12N
METAR K12N 232254Z AUTO 00000KT 19/M02 A3033 RMK AO1 SLP269
T01941022





000
SAUS41 KPHI 232255
MTRACY
METAR KACY 232254Z 29004KT 10SM CLR 20/M01 A3037 RMK AO2 SLP283
T02001011





000
SAUS41 KPHI 232155
MTRACY
METAR KACY 232154Z 11007KT 10SM CLR 18/07 A3037 RMK AO2 SLP284
T01830072





000
SAUS41 KPHI 232155
MTR12N
METAR K12N 232154Z AUTO 22005KT 20/M04 A3033 RMK AO1 SLP272
T02001044





000
SAUS41 KPHI 232155
MTRACY
METAR KACY 232154Z 11007KT 10SM CLR 18/07 A3037 RMK AO2 SLP284
T01830072





000
SAUS41 KPHI 232155
MTR12N
METAR K12N 232154Z AUTO 22005KT 20/M04 A3033 RMK AO1 SLP272
T02001044





000
SAUS41 KPHI 232055
MTR12N
METAR K12N 232054Z AUTO 00000KT 21/M03 A3034 RMK AO1 SLP274
T02061028 56016





000
SAUS41 KPHI 232055
MTRACY
METAR KACY 232054Z VRB06KT 10SM CLR 19/06 A3037 RMK AO2 SLP285
T01940056 56013





000
SAUS41 KPHI 232055
MTRACY
METAR KACY 232054Z VRB06KT 10SM CLR 19/06 A3037 RMK AO2 SLP285
T01940056 56013





000
SAUS41 KPHI 231956
MTRACY
METAR KACY 231954Z 16010KT 10SM CLR 19/04 A3038 RMK AO2 WSHFT 1927
SLP287 T01890044





000
SAUS41 KPHI 231955
MTR12N
METAR K12N 231954Z AUTO VRB04KT 19/M03 A3035 RMK AO1 SLP277
T01891033





000
SAUS41 KPHI 231948
MTRACY
SPECI KACY 231947Z 14012KT 10SM CLR 19/04 A3038 RMK AO2 WSHFT 1927
T01890044





000
SAUS41 KPHI 231855
MTRACY
METAR KACY 231854Z 30005KT 10SM CLR 20/M02 A3040 RMK AO2 SLP293
T02001022





000
SAUS41 KPHI 231855
MTR12N
METAR K12N 231854Z AUTO VRB03KT 18/M03 A3037 RMK AO1 SLP283
T01831028





000
SAUS41 KPHI 231755
MTR12N
METAR K12N 231754Z AUTO VRB03KT 17/M03 A3039 RMK AO1 SLP290
T01721028 10178 20078 58014





000
SAUS41 KPHI 231755
MTRACY
METAR KACY 231754Z 23006KT 10SM CLR 19/M03 A3041 RMK AO2 SLP298
T01941028 10200 20122 58009





000
SAUS41 KPHI 231755
MTR12N
METAR K12N 231754Z AUTO VRB03KT 17/M03 A3039 RMK AO1 SLP290
T01721028 10178 20078 58014





000
SAUS41 KPHI 231755
MTRACY
METAR KACY 231754Z 23006KT 10SM CLR 19/M03 A3041 RMK AO2 SLP298
T01941028 10200 20122 58009





000
SAUS41 KPHI 231655
MTRACY
METAR KACY 231654Z 24005KT 10SM CLR 18/M03 A3043 RMK AO2 SLP304
T01781028





000
SAUS41 KPHI 231655
MTR12N
METAR K12N 231654Z AUTO 00000KT 16/M02 A3040 RMK AO1 SLP295
T01561022





000
SAUS41 KPHI 231555
MTR12N
METAR K12N 231554Z AUTO 14/M03 A3042 RMK AO1 SLP300 T01441028





000
SAUS41 KPHI 231555
MTRACY
METAR KACY 231554Z VRB04G16KT 10SM CLR 17/M02 A3044 RMK AO2 SLP308
T01671022





000
SAUS41 KPHI 231455
MTRACY
METAR KACY 231454Z 34012G17KT 10SM CLR 16/M03 A3044 RMK AO2 SLP307
T01561028 51011





000
SAUS41 KPHI 231455
MTR12N
METAR K12N 231454Z AUTO VRB03KT 13/M03 A3043 RMK AO1 SLP305
T01281028 51011





000
SAUS41 KPHI 231355
MTRACY
METAR KACY 231354Z 35011KT 10SM CLR 15/M02 A3043 RMK AO2 SLP303
T01501022





000
SAUS41 KPHI 231355
MTR12N
METAR K12N 231354Z AUTO VRB06KT 11/M03 A3043 RMK AO1 SLP305
T01061033





000
SAUS41 KPHI 231255
MTR12N
METAR K12N 231254Z AUTO 36008G16KT 09/M03 A3042 RMK AO1 SLP304
T00941033





000
SAUS41 KPHI 231255
MTRACY
METAR KACY 231254Z 33011KT 10SM CLR 14/M01 A3043 RMK AO2 SLP303
T01391006





000
SAUS41 KPHI 231255
MTRACY
METAR KACY 231254Z 33011KT 10SM CLR 14/M01 A3043 RMK AO2 SLP303
T01391006





000
SAUS41 KPHI 231255
MTR12N
METAR K12N 231254Z AUTO 36008G16KT 09/M03 A3042 RMK AO1 SLP304
T00941033





000
SAUS41 KPHI 231155
MTRACY
METAR KACY 231154Z 33010KT 10SM CLR 12/M01 A3041 RMK AO2 SLP296
7//// T01221006 10128 20061 51037





000
SAUS41 KPHI 231155
MTR12N
METAR K12N 231154Z AUTO VRB06KT 08/M03 A3040 RMK AO1 SLP294
T00831028 10094 20039 53024





000
SAUS41 KPHI 231055
MTRACY
METAR KACY 231054Z 34004KT 10SM CLR 10/03 A3038 RMK AO2 SLP286
T01000028





000
SAUS41 KPHI 231055
MTR12N
METAR K12N 231054Z AUTO 35008KT 07/M01 A3037 RMK AO1 SLP285
T00671011





000
SAUS41 KPHI 231055
MTR12N
METAR K12N 231054Z AUTO 35008KT 07/M01 A3037 RMK AO1 SLP285
T00671011





000
SAUS41 KPHI 231055
MTRACY
METAR KACY 231054Z 34004KT 10SM CLR 10/03 A3038 RMK AO2 SLP286
T01000028





000
SAUS41 KPHI 230955
MTRACY
METAR KACY 230954Z 00000KT 10SM CLR 08/03 A3034 RMK AO2 SLP274
T00830028





000
SAUS41 KPHI 230955
MTR12N
METAR K12N 230954Z AUTO 36004KT 06/M02 A3034 RMK AO1 SLP276
T00561022





000
SAUS41 KPHI 230855
MTR12N
METAR K12N 230854Z AUTO VRB03KT 06/M02 A3032 RMK AO1 SLP269
T00561022 51031





000
SAUS41 KPHI 230855
MTRACY
METAR KACY 230854Z 00000KT 10SM CLR 09/02 A3030 RMK AO2 SLP259
T00890022 53026





000
SAUS41 KPHI 230755
MTRACY
METAR KACY 230754Z 35008KT 10SM CLR 11/02 A3026 RMK AO2 SLP247
T01110022





000
SAUS41 KPHI 230755
MTR12N
METAR K12N 230754Z AUTO 00000KT 07/M03 A3030 RMK AO1 SLP262
T00721028





000
SAUS41 KPHI 230655
MTRACY
METAR KACY 230654Z 34005KT 10SM CLR 10/04 A3024 RMK AO2 SLP239
T01000039





000
SAUS41 KPHI 230655
MTR12N
METAR K12N 230654Z AUTO 00000KT 08/M03 A3027 RMK AO1 SLP248
T00831033





000
SAUS41 KPHI 230555
MTR12N
METAR K12N 230554Z AUTO VRB06KT 09/M03 A3023 RMK AO1 SLP237
T00941033 10156 20094 51025





000
SAUS41 KPHI 230555
MTR12N
METAR K12N 230554Z AUTO VRB06KT 09/M03 A3023 RMK AO1 SLP237
T00941033 10156 20094 51025





000
SAUS41 KPHI 230555
MTRACY
METAR KACY 230554Z 27003KT 10SM CLR 13/04 A3022 RMK AO2 SLP233
T01280044 10211 20117 51029





000
SAUS41 KPHI 230555
MTRACY
METAR KACY 230554Z 27003KT 10SM CLR 13/04 A3022 RMK AO2 SLP233
T01280044 10211 20117 51029





000
SAUS41 KPHI 230455
MTR12N
METAR K12N 230454Z AUTO 36010G18KT 340V040 11/M01 A3021 RMK AO1
SLP229 T01061011 402110072





000
SAUS41 KPHI 230455
MTRACY
METAR KACY 230454Z 34007KT 10SM CLR 12/04 A3020 RMK AO2 SLP225
T01170044 402500117





000
SAUS41 KPHI 230355
MTR12N
METAR K12N 230354Z AUTO 35008KT 12/02 A3019 RMK AO1 SLP221 T01170017





000
SAUS41 KPHI 230355
MTRACY
METAR KACY 230354Z 27007KT 10SM CLR 16/06 A3016 RMK AO2 SLP213
T01560061





000
SAUS41 KPHI 230355
MTR12N
METAR K12N 230354Z AUTO 35008KT 12/02 A3019 RMK AO1 SLP221 T01170017





000
SAUS41 KPHI 230355
MTRACY
METAR KACY 230354Z 27007KT 10SM CLR 16/06 A3016 RMK AO2 SLP213
T01560061





000
SAUS41 KPHI 230255
MTR12N
METAR K12N 230254Z AUTO 36004KT 12/02 A3016 RMK AO1 SLP210 T01170022
51044





000
SAUS41 KPHI 230255
MTR12N
METAR K12N 230254Z AUTO 36004KT 12/02 A3016 RMK AO1 SLP210 T01170022
51044





000
SAUS41 KPHI 230255
MTRACY
METAR KACY 230254Z 29003KT 10SM CLR 14/07 A3013 RMK AO2 SLP204
T01390067 53031





000
SAUS41 KPHI 230255
MTRACY
METAR KACY 230254Z 29003KT 10SM CLR 14/07 A3013 RMK AO2 SLP204
T01390067 53031





000
SAUS41 KPHI 230155
MTR12N
METAR K12N 230154Z AUTO 35007KT 14/03 A3013 RMK AO1 SLP200 T01440028





000
SAUS41 KPHI 230155
MTRACY
METAR KACY 230154Z 25006KT 10SM CLR 18/06 A3010 RMK AO2 SLP192
T01830056





000
SAUS41 KPHI 230055
MTR12N
METAR K12N 230054Z AUTO 00000KT 12/07 A3007 RMK AO1 SLP182 T01220072





000
SAUS41 KPHI 230055
MTRACY
METAR KACY 230054Z 27007KT 10SM CLR 19/06 A3007 RMK AO2 SLP183
T01940056





000
SAUS41 KPHI 230055
MTR12N
METAR K12N 230054Z AUTO 00000KT 12/07 A3007 RMK AO1 SLP182 T01220072





000
SAUS41 KPHI 230055
MTRACY
METAR KACY 230054Z 27007KT 10SM CLR 19/06 A3007 RMK AO2 SLP183
T01940056





000
SAUS41 KPHI 222355
MTRACY
METAR KACY 222354Z 25008KT 10SM FEW100 21/06 A3004 RMK AO2 SLP172
60000 T02110061 10250 20211 53013





000
SAUS41 KPHI 222355
MTR12N
METAR K12N 222354Z AUTO 00000KT 16/06 A3002 RMK AO1 SLP166 T01610056
10206 20161 53019





000
SAUS41 KPHI 222355
MTRACY
METAR KACY 222354Z 25008KT 10SM FEW100 21/06 A3004 RMK AO2 SLP172
60000 T02110061 10250 20211 53013





000
SAUS41 KPHI 222355
MTR12N
METAR K12N 222354Z AUTO 00000KT 16/06 A3002 RMK AO1 SLP166 T01610056
10206 20161 53019





000
SAUS41 KPHI 222255
MTR12N
METAR K12N 222254Z AUTO 00000KT 18/04 A3000 RMK AO1 SLP156 T01830044





000
SAUS41 KPHI 222255
MTRACY
METAR KACY 222254Z 25014G19KT 10SM CLR 22/06 A3001 RMK AO2 SLP163
T02220056





000
SAUS41 KPHI 222155
MTRACY
METAR KACY 222154Z 26014KT 10SM CLR 22/06 A3001 RMK AO2 PK WND
26027/2130 SLP160 T02220056





000
SAUS41 KPHI 222155
MTR12N
METAR K12N 222154Z AUTO 19/06 A2998 RMK AO1 SLP150 T01940056





000
SAUS41 KPHI 222155
MTR12N
METAR K12N 222154Z AUTO 19/06 A2998 RMK AO1 SLP150 T01940056





000
SAUS41 KPHI 222155
MTRACY
METAR KACY 222154Z 26014KT 10SM CLR 22/06 A3001 RMK AO2 PK WND
26027/2130 SLP160 T02220056





000
SAUS41 KPHI 222055
MTR12N
METAR K12N 222054Z AUTO VRB05KT 19/04 A2997 RMK AO1 SLP146 T01940044
50007





000
SAUS41 KPHI 222055
MTRACY
METAR KACY 222054Z 27014G20KT 10SM FEW075 BKN095 23/06 A3000 RMK AO2
RAB03E13 SLP159 P0000 60000 T02280056 53003





000
SAUS41 KPHI 221955
MTR12N
METAR K12N 221954Z AUTO 22008G22KT 180V280 16/08 A2998 RMK AO1
SLP151 T01610078





000
SAUS41 KPHI 221955
MTRACY
METAR KACY 221954Z 28014G24KT 10SM BKN075 24/05 A3000 RMK AO2 PK WND
30026/1938 RAB41E50 SLP157 P0000 T02440050





000
SAUS41 KPHI 221955
MTR12N
METAR K12N 221954Z AUTO 22008G22KT 180V280 16/08 A2998 RMK AO1
SLP151 T01610078





000
SAUS41 KPHI 221955
MTRACY
METAR KACY 221954Z 28014G24KT 10SM BKN075 24/05 A3000 RMK AO2 PK WND
30026/1938 RAB41E50 SLP157 P0000 T02440050





000
SAUS41 KPHI 221855
MTRACY
METAR KACY 221854Z AUTO 29015G25KT 10SM FEW070 23/04 A2999 RMK AO2
PK WND 30033/1839 SLP155 T02330044 TSNO





000
SAUS41 KPHI 221855
MTR12N
METAR K12N 221854Z AUTO VRB04KT 19/07 A2995 RMK AO1 SLP139 T01940067





000
SAUS41 KPHI 221855
MTRACY
METAR KACY 221854Z AUTO 29015G25KT 10SM FEW070 23/04 A2999 RMK AO2
PK WND 30033/1839 SLP155 T02330044 TSNO





000
SAUS41 KPHI 221855
MTR12N
METAR K12N 221854Z AUTO VRB04KT 19/07 A2995 RMK AO1 SLP139 T01940067





000
SAUS41 KPHI 221755
MTRACY
METAR KACY 221754Z AUTO 26017G23KT 10SM CLR 23/06 A3000 RMK AO2 PK
WND 29026/1736 SLP156 6//// T02280056 10228 20167 TSNO





000
SAUS41 KPHI 221755
MTRACY
METAR KACY 221754Z AUTO 26017G23KT 10SM CLR 23/06 A3000 RMK AO2 PK
WND 29026/1736 SLP156 6//// T02280056 10228 20167 TSNO





000
SAUS41 KPHI 221755
MTR12N
METAR K12N 221754Z AUTO 32007KT 280V010 19/06 A2994 RMK AO1 SLP138
T01890056 10211 20117 55001





000
SAUS41 KPHI 221755
MTR12N
METAR K12N 221754Z AUTO 32007KT 280V010 19/06 A2994 RMK AO1 SLP138
T01890056 10211 20117 55001





000
SAUS41 KPHI 221655
MTR12N
METAR K12N 221654Z AUTO 35007KT 20/05 A2994 RMK AO1 SLP137 T02000050





000
SAUS41 KPHI 221655
MTRACY
METAR KACY 221654Z AUTO 27012G18KT 10SM CLR 22/06 A3001 RMK AO2
SLP160 T02220061 TSNO





000
SAUS41 KPHI 221555
MTRACY
METAR KACY 221554Z AUTO 30011G17KT 10SM 21/07 A3001 RMK AO2 SLP161
T02060067 TSNO





000
SAUS41 KPHI 221555
MTR12N
METAR K12N 221554Z AUTO 34011G17KT 280V020 20/05 A2994 RMK AO1
SLP137 T02000050





000
SAUS41 KPHI 221555
MTRACY
METAR KACY 221554Z AUTO 30011G17KT 10SM 21/07 A3001 RMK AO2 SLP161
T02060067 TSNO





000
SAUS41 KPHI 221555
MTR12N
METAR K12N 221554Z AUTO 34011G17KT 280V020 20/05 A2994 RMK AO1
SLP137 T02000050





000
SAUS41 KPHI 221455
MTRACY
METAR KACY 221454Z 30013KT 10SM CLR 19/08 A3001 RMK AO2 SLP161
T01890078 51014





000
SAUS41 KPHI 221455
MTR12N
METAR K12N 221454Z AUTO VRB06G17KT 18/04 A2995 RMK AO1 SLP139
T01830044 51003





000
SAUS41 KPHI 221355
MTRACY
METAR KACY 221354Z 29010KT 10SM CLR 17/09 A3000 RMK AO2 SLP159
T01670089





000
SAUS41 KPHI 221355
MTR12N
METAR K12N 221354Z AUTO 00000KT 17/06 A2994 RMK AO1 SLP139 T01670061





000
SAUS41 KPHI 221255
MTR12N
METAR K12N 221254Z AUTO 23004KT 14/06 A2994 RMK AO1 SLP138 T01390061





000
SAUS41 KPHI 221255
MTRACY
METAR KACY 221254Z 30012KT 10SM CLR 14/09 A2999 RMK AO2 SLP155
T01440089





000
SAUS41 KPHI 221155
MTR12N
METAR K12N 221154Z AUTO 00000KT 12/07 A2994 RMK AO1 SLP138 T01170067
10117 20072 51015





000
SAUS41 KPHI 221155
MTRACY
METAR KACY 221154Z 30010KT 10SM CLR 12/09 A2997 RMK AO2 SLP148 70057
T01220089 10122 20089 51023





000
SAUS41 KPHI 221155
MTRACY
METAR KACY 221154Z 30010KT 10SM CLR 12/09 A2997 RMK AO2 SLP148 70057
T01220089 10122 20089 51023





000
SAUS41 KPHI 221155
MTR12N
METAR K12N 221154Z AUTO 00000KT 12/07 A2994 RMK AO1 SLP138 T01170067
10117 20072 51015





000
SAUS41 KPHI 221055
MTR12N
METAR K12N 221054Z AUTO 00000KT 08/08 A2993 RMK AO1 SLP136 T00830078





000
SAUS41 KPHI 221055
MTRACY
METAR KACY 221054Z 30008KT 5SM BR CLR 10/08 A2995 RMK AO2 SLP141
T01000083





000
SAUS41 KPHI 221055
MTRACY
METAR KACY 221054Z 30008KT 5SM BR CLR 10/08 A2995 RMK AO2 SLP141
T01000083





000
SAUS41 KPHI 221055
MTR12N
METAR K12N 221054Z AUTO 00000KT 08/08 A2993 RMK AO1 SLP136 T00830078





000
SAUS41 KPHI 220955
MTR12N
METAR K12N 220954Z AUTO 00000KT 07/07 A2991 RMK AO1 SLP131 T00720067





000
SAUS41 KPHI 220955
MTRACY
METAR KACY 220954Z 30007KT 3SM BR CLR 09/07 A2993 RMK AO2 SLP134
T00890072





000
SAUS41 KPHI 220855
MTR12N
METAR K12N 220854Z AUTO 00000KT 08/07 A2989 RMK AO1 SLP123 T00830072
53001





000
SAUS41 KPHI 220855
MTR12N
METAR K12N 220854Z AUTO 00000KT 08/07 A2989 RMK AO1 SLP123 T00830072
53001





000
SAUS41 KPHI 220855
MTRACY
METAR KACY 220854Z 29008KT 5SM BR CLR 09/08 A2990 RMK AO2 SLP124
T00940078 53004





000
SAUS41 KPHI 220855
MTRACY
METAR KACY 220854Z 29008KT 5SM BR CLR 09/08 A2990 RMK AO2 SLP124
T00940078 53004





000
SAUS41 KPHI 220755
MTR12N
METAR K12N 220754Z AUTO 00000KT 10/07 A2988 RMK AO1 SLP118 T01000072





000
SAUS41 KPHI 220755
MTRACY
METAR KACY 220754Z 29004KT 4SM BR CLR 09/08 A2988 RMK AO2 SLP117
T00890078





000
SAUS41 KPHI 220708
MTRACY
SPECI KACY 220707Z 29005KT 7SM FEW004 09/08 A2988 RMK AO2 T00940083





000
SAUS41 KPHI 220656
MTRACY
METAR KACY 220654Z AUTO 30005KT 8SM BKN004 BKN100 09/09 A2989 RMK
AO2 SLP119 T00940089 TSNO





000
SAUS41 KPHI 220656
MTRACY
METAR KACY 220654Z AUTO 30005KT 8SM BKN004 BKN100 09/09 A2989 RMK
AO2 SLP119 T00940089 TSNO





000
SAUS41 KPHI 220655
MTR12N
METAR K12N 220654Z AUTO 00000KT 11/07 A2987 RMK AO1 SLP115 T01060072





000
SAUS41 KPHI 220655
MTR12N
METAR K12N 220654Z AUTO 00000KT 11/07 A2987 RMK AO1 SLP115 T01060072





000
SAUS41 KPHI 220556
MTRACY
METAR KACY 220554Z AUTO 30003KT 10SM BKN004 BKN055 OVC100 10/09
A2989 RMK AO2 SLP121 60017 T01000089 10100 20100 58004 TSNO





000
SAUS41 KPHI 220555
MTR12N
METAR K12N 220554Z AUTO 00000KT 11/07 A2989 RMK AO1 SLP121 T01060067
10128 20106 55000





000
SAUS41 KPHI 220518
MTRACY
SPECI KACY 220517Z 32003KT 10SM BKN006 BKN025 OVC100 10/09 A2989 RMK
AO2 T01000089





000
SAUS41 KPHI 220518
MTRACY
SPECI KACY 220517Z 32003KT 10SM BKN006 BKN025 OVC100 10/09 A2989 RMK
AO2 T01000089





000
SAUS41 KPHI 220456
MTRACY
METAR KACY 220454Z 31005KT 10SM SCT009 OVC025 10/09 A2990 RMK AO2
SLP123 T01000089 401560067





000
SAUS41 KPHI 220455
MTR12N
METAR K12N 220454Z AUTO 00000KT 11/07 A2989 RMK AO1 SLP120 T01060067
401610067





000
SAUS41 KPHI 220415
MTRACY
SPECI KACY 220413Z 32004KT 10SM OVC009 10/09 A2990 RMK AO2 T01000089





000
SAUS41 KPHI 220415
MTRACY
SPECI KACY 220413Z 32004KT 10SM OVC009 10/09 A2990 RMK AO2 T01000089





000
SAUS41 KPHI 220355
MTR12N
METAR K12N 220354Z AUTO 21004KT 11/06 A2989 RMK AO1 SLP123 T01060061





000
SAUS41 KPHI 220355
MTRACY
METAR KACY 220354Z 33005KT 10SM BKN010 OVC050 10/09 A2990 RMK AO2
CIG 008V014 SLP123 T01000089





000
SAUS41 KPHI 220255
MTRACY
METAR KACY 220254Z 01003KT 10SM OVC012 10/09 A2990 RMK AO2 SLP124
60017 T01000089 58008





000
SAUS41 KPHI 220255
MTR12N
METAR K12N 220254Z AUTO 00000KT 11/07 A2989 RMK AO1 SLP122 T01110067
58004





000
SAUS41 KPHI 220236
MTRACY
SPECI KACY 220235Z 02003KT 10SM SCT007 OVC012 10/09 A2990 RMK AO2
T01000089





000
SAUS41 KPHI 220156
MTRACY
METAR KACY 220154Z 06004KT 10SM OVC007 10/09 A2991 RMK AO2 RAE37 CIG
003V009 SLP129 P0003 T01000089





000
SAUS41 KPHI 220155
MTR12N
METAR K12N 220154Z AUTO 00000KT 12/07 A2991 RMK AO1 SLP129 T01170067





000
SAUS41 KPHI 220101
MTRACY
SPECI KACY 220100Z 00000KT 3SM -RA BR BKN008 BKN014 OVC025 10/09
A2993 RMK AO2 P0001 T01000089





000
SAUS41 KPHI 220101
MTRACY
SPECI KACY 220100Z 00000KT 3SM -RA BR BKN008 BKN014 OVC025 10/09
A2993 RMK AO2 P0001 T01000089





000
SAUS41 KPHI 220055
MTRACY
METAR KACY 220054Z 31003KT 1 1/2SM -RA BR SCT007 BKN014 OVC023 10/09
A2993 RMK AO2 SFC VIS 3 SLP133 P0014 T01000094





000
SAUS41 KPHI 220055
MTR12N
METAR K12N 220054Z AUTO 22005KT 12/07 A2991 RMK AO1 SLP130 T01220067





000
SAUS41 KPHI 220048
MTRACY
SPECI KACY 220046Z 00000KT 1 1/2SM -RA BR FEW007 BKN011 OVC055 10/09
A2992 RMK AO2 SFC VIS 3 P0013 T01000089





000
SAUS41 KPHI 220048
MTRACY
SPECI KACY 220046Z 00000KT 1 1/2SM -RA BR FEW007 BKN011 OVC055 10/09
A2992 RMK AO2 SFC VIS 3 P0013 T01000089





000
SAUS41 KPHI 220030
MTRACY
SPECI KACY 220028Z 07004KT 1 1/2SM RA BR SCT008 BKN020 OVC055 10/09
A2992 RMK AO2 SFC VIS 2 1/2 P0008 T01000094





000
SAUS41 KPHI 220030
MTRACY
SPECI KACY 220028Z 07004KT 1 1/2SM RA BR SCT008 BKN020 OVC055 10/09
A2992 RMK AO2 SFC VIS 2 1/2 P0008 T01000094





000
SAUS41 KPHI 220022
MTRACY
SPECI KACY 220021Z 06003KT 2 1/2SM RA BR FEW008 BKN039 OVC049 10/09
A2992 RMK AO2 P0006 T01000089





000
SAUS41 KPHI 220022
MTRACY
SPECI KACY 220021Z 06003KT 2 1/2SM RA BR FEW008 BKN039 OVC049 10/09
A2992 RMK AO2 P0006 T01000089





000
SAUS41 KPHI 220020
MTRACY
SPECI KACY 220019Z 07003KT 3SM RA BR FEW015 BKN039 OVC049 10/09
A2992 RMK AO2 P0006 T01000089





000
SAUS41 KPHI 220020
MTRACY
SPECI KACY 220019Z 07003KT 3SM RA BR FEW015 BKN039 OVC049 10/09
A2992 RMK AO2 P0006 T01000089





000
SAUS41 KPHI 212355
MTR12N
METAR K12N 212354Z AUTO VRB03KT 13/07 A2990 RMK AO1 SLP127 T01330067
10161 20133 55001





000
SAUS41 KPHI 212355
MTRACY
METAR KACY 212354Z 09004KT 2 1/2SM -RA BR BKN039 BKN049 OVC055 10/09
A2992 RMK AO2 SLP132 P0010 60040 T01000089 10144 20100 56013





000
SAUS41 KPHI 212355
MTR12N
METAR K12N 212354Z AUTO VRB03KT 13/07 A2990 RMK AO1 SLP127 T01330067
10161 20133 55001





000
SAUS41 KPHI 212355
MTRACY
METAR KACY 212354Z 09004KT 2 1/2SM -RA BR BKN039 BKN049 OVC055 10/09
A2992 RMK AO2 SLP132 P0010 60040 T01000089 10144 20100 56013





000
SAUS41 KPHI 212347
MTRACY
SPECI KACY 212346Z 08004KT 2SM RA BR FEW042 BKN048 OVC060 10/09
A2992 RMK AO2 P0009 T01000094





000
SAUS41 KPHI 212347
MTRACY
SPECI KACY 212346Z 08004KT 2SM RA BR FEW042 BKN048 OVC060 10/09
A2992 RMK AO2 P0009 T01000094





000
SAUS41 KPHI 212256
MTRACY
METAR KACY 212254Z 09003KT 3SM -RA BR BKN031 OVC060 11/09 A2993 RMK
AO2 SLP135 P0008 T01060089





000
SAUS41 KPHI 212255
MTR12N
METAR K12N 212254Z AUTO 23005KT 14/04 A2990 RMK AO1 SLP125 T01390044





000
SAUS41 KPHI 212255
MTR12N
METAR K12N 212254Z AUTO 23005KT 14/04 A2990 RMK AO1 SLP125 T01390044





000
SAUS41 KPHI 212245
MTRACY
SPECI KACY 212244Z 08004KT 2SM +RA BR BKN029 BKN036 OVC065 10/09
A2993 RMK AO2 P0006 T01000089





000
SAUS41 KPHI 212155
MTR12N
METAR K12N 212154Z AUTO 23004KT 14/04 A2990 RMK AO1 SLP125 T01440044





000
SAUS41 KPHI 212155
MTRACY
METAR KACY 212154Z 11006KT 6SM -RA BR OVC075 11/09 A2992 RMK AO2
SLP132 P0006 T01060089





000
SAUS41 KPHI 212155
MTRACY
METAR KACY 212154Z 11006KT 6SM -RA BR OVC075 11/09 A2992 RMK AO2
SLP132 P0006 T01060089





000
SAUS41 KPHI 212155
MTR12N
METAR K12N 212154Z AUTO 23004KT 14/04 A2990 RMK AO1 SLP125 T01440044





000
SAUS41 KPHI 212129
MTRACY
SPECI KACY 212128Z 09006KT 5SM -RA BR FEW050 FEW065 OVC080 11/09
A2994 RMK AO2 P0004 T01060089





000
SAUS41 KPHI 212129
MTRACY
SPECI KACY 212128Z 09006KT 5SM -RA BR FEW050 FEW065 OVC080 11/09
A2994 RMK AO2 P0004 T01060089





000
SAUS41 KPHI 212109
MTRACY
SPECI KACY 212108Z 12003KT 2 1/2SM -RA BR OVC020 11/09 A2995 RMK AO2
SFC VIS 3 P0001 T01060089





000
SAUS41 KPHI 212055
MTR12N
METAR K12N 212054Z AUTO 00000KT 16/03 A2991 RMK AO1 SLP128 T01560033
56017





000
SAUS41 KPHI 212055
MTRACY
METAR KACY 212054Z 12007KT 3SM -RA BR BKN040 OVC055 11/09 A2996 RMK
AO2 RAB19181957B1907B1921B1952B04 SLP145 P0012 60016 T01110094





000
SAUS41 KPHI 212055
MTRACY
METAR KACY 212054Z 12007KT 3SM -RA BR BKN040 OVC055 11/09 A2996 RMK
AO2 RAB19181957B1907B1921B1952B04 SLP145 P0012 60016 T01110094





000
SAUS41 KPHI 212055
MTR12N
METAR K12N 212054Z AUTO 00000KT 16/03 A2991 RMK AO1 SLP128 T01560033
56017





000
SAUS41 KPHI 212043
MTRACY
SPECI KACY 212042Z 16007KT 2 1/2SM -RA BR OVC040 11/09 A2996 RMK AO2
RAB19181957B1907B1921B1952B04 P0009 T01110094





000
SAUS41 KPHI 212043
MTRACY
SPECI KACY 212042Z 16007KT 2 1/2SM -RA BR OVC040 11/09 A2996 RMK AO2
RAB19181957B1907B1921B1952B04 P0009 T01110094





000
SAUS41 KPHI 211955
MTR12N
METAR K12N 211954Z AUTO VRB05KT 15/02 A2992 RMK AO1 SLP133 T01500017





000
SAUS41 KPHI 211955
MTR12N
METAR K12N 211954Z AUTO VRB05KT 15/02 A2992 RMK AO1 SLP133 T01500017





000
SAUS41 KPHI 211855
MTR12N
METAR K12N 211854Z AUTO 22008KT 15/01 A2994 RMK AO1 SLP139 T01500011





000
SAUS41 KPHI 211755
MTR12N
METAR K12N 211754Z AUTO 16/01 A2996 RMK AO1 SLP145 T01560011 10156
20100 56016





000
SAUS41 KPHI 211755
MTRACY
METAR KACY 211754Z 20004KT 4SM -RA OVC070 13/10 A2998 RMK AO2 SLP151
P0002 60002 T01330100 10156 20106 58014





    US Dept of Commerce
    National Oceanic and Atmospheric Administration
    National Weather Service
    1325 East West Highway
    Silver Spring, MD 20910
    Page Author: NWS Internet Services Team
Disclaimer
Information Quality
Credits
Glossary
Privacy Policy
Freedom of Information Act (FOIA)
About Us
Career Opportunities